Terminal Aerodrome Forecast
Issued by NWS

Home | Current Version | Previous Version | Text Only | Print | Product List | Glossary On
Versions: 1 2 3 4 5 6 7 8 9 10 11 12
760
FTUS42 KGSP 292336
TAFGMU
TAF
KGMU 292336Z 3000/3024 VRB04KT P6SM BKN250
     FM301700 15005KT P6SM BKN045 PROB30 3018/3020 4SM -SHRA OVC025
     FM302000 17006KT P6SM VCSH BKN045 PROB30 3020/3024 3SM -TSRA
      OVC025CB=

USA.gov is the U.S. government's official web portal to all federal, state and local government web resources and services.